createdAt,value
2023-03-26T00:01:46.812Z,21.80
2023-03-26T00:04:19.891Z,23.00
2023-03-26T00:09:17.715Z,25.50
2023-03-26T00:11:47.284Z,27.90
2023-03-26T00:14:17.938Z,27.40
2023-03-26T00:16:47.811Z,29.00
2023-03-26T00:19:18.879Z,30.50
2023-03-26T00:21:48.486Z,28.40
2023-03-26T00:24:17.584Z,29.90
2023-03-26T00:26:55.363Z,27.20
2023-03-26T00:29:24.791Z,28.00
2023-03-26T00:31:53.247Z,26.90
2023-03-26T00:34:27.044Z,28.10
2023-03-26T00:36:55.242Z,26.50
2023-03-26T00:39:25.791Z,25.00
2023-03-26T00:41:55.618Z,25.00
2023-03-26T00:44:26.083Z,24.70
2023-03-26T00:46:55.080Z,23.20
2023-03-26T00:49:26.861Z,22.70
2023-03-26T00:51:55.954Z,18.40
2023-03-26T00:54:24.025Z,17.80
2023-03-26T00:56:58.196Z,15.80
2023-03-26T00:59:30.498Z,14.30
2023-03-26T01:01:58.727Z,12.90
2023-03-26T01:04:31.449Z,12.40
2023-03-26T01:07:09.045Z,11.00
2023-03-26T01:09:45.183Z,9.60
2023-03-26T01:12:20.825Z,8.60
2023-03-26T01:14:53.352Z,7.80
2023-03-26T01:17:22.143Z,7.10
2023-03-26T01:19:59.030Z,7.40
2023-03-26T01:22:27.519Z,6.10
2023-03-26T01:24:58.931Z,6.20
2023-03-26T01:27:42.680Z,5.70
2023-03-26T01:30:43.895Z,5.60
2023-03-26T01:33:21.643Z,6.70
2023-03-26T01:36:26.474Z,6.10
2023-03-26T01:39:00.894Z,5.10
2023-03-26T01:41:42.583Z,4.70
2023-03-26T01:44:21.427Z,4.00
2023-03-26T01:46:49.711Z,3.80
2023-03-26T01:49:20.016Z,3.00
2023-03-26T01:51:48.498Z,2.50
2023-03-26T01:54:19.681Z,2.20
2023-03-26T01:57:13.960Z,2.20
2023-03-26T02:00:25.202Z,1.60
2023-03-26T02:03:18.400Z,1.30
2023-03-26T02:06:00.621Z,1.20
2023-03-26T02:08:35.948Z,1.20
2023-03-26T02:11:11.471Z,1.20
2023-03-26T02:13:41.744Z,1.30
2023-03-26T02:16:16.900Z,1.10
2023-03-26T02:18:51.566Z,1.10
2023-03-26T02:21:21.867Z,1.20
2023-03-26T02:23:57.976Z,1.10
2023-03-26T02:26:26.268Z,1.00
2023-03-26T02:28:59.024Z,1.30
2023-03-26T02:31:30.680Z,1.10
2023-03-26T02:33:58.786Z,1.10
2023-03-26T02:36:28.163Z,1.20
2023-03-26T02:39:00.357Z,1.00
2023-03-26T02:41:31.704Z,1.20
2023-03-26T02:44:06.495Z,1.30
2023-03-26T02:47:00.755Z,1.30
2023-03-26T02:49:47.994Z,1.20
2023-03-26T02:52:22.806Z,1.40
2023-03-26T02:54:56.986Z,1.20
2023-03-26T02:57:26.767Z,1.40
2023-03-26T03:00:22.811Z,1.30
2023-03-26T03:03:13.008Z,1.20
2023-03-26T03:06:15.522Z,1.60
2023-03-26T03:08:50.028Z,1.20
2023-03-26T03:11:22.182Z,1.30
2023-03-26T03:13:51.301Z,1.30
2023-03-26T03:16:28.739Z,1.60
2023-03-26T03:18:58.717Z,1.40
2023-03-26T03:21:38.714Z,1.20
2023-03-26T03:24:11.746Z,1.70
2023-03-26T03:26:46.292Z,1.60
2023-03-26T03:29:28.717Z,1.90
2023-03-26T03:31:57.275Z,1.80
2023-03-26T03:34:45.860Z,1.60
2023-03-26T03:37:14.361Z,1.70
2023-03-26T03:39:46.904Z,1.60
2023-03-26T03:42:18.631Z,2.00
2023-03-26T03:44:49.437Z,2.00
2023-03-26T03:47:47.313Z,1.80
2023-03-26T03:50:17.392Z,1.90
2023-03-26T03:52:59.178Z,1.80
2023-03-26T03:55:27.989Z,1.80
2023-03-26T03:58:00.137Z,1.90
2023-03-26T04:00:30.759Z,1.80
2023-03-26T04:03:33.557Z,1.90
2023-03-26T04:06:08.680Z,2.00
2023-03-26T04:08:36.871Z,2.10
2023-03-26T04:11:09.418Z,2.10
2023-03-26T04:13:59.556Z,2.60
2023-03-26T04:16:49.046Z,1.90
2023-03-26T04:19:24.906Z,2.70
2023-03-26T04:21:53.231Z,2.70
2023-03-26T04:24:22.562Z,3.10
2023-03-26T04:27:11.988Z,2.70
2023-03-26T04:29:45.251Z,2.30
2023-03-26T04:32:26.518Z,2.30
2023-03-26T04:34:55.317Z,1.90
2023-03-26T04:37:34.669Z,2.10
2023-03-26T04:40:20.546Z,1.80
2023-03-26T04:43:06.616Z,1.60
2023-03-26T04:46:05.723Z,2.30
2023-03-26T04:48:38.859Z,2.00
2023-03-26T04:51:18.402Z,1.80
2023-03-26T04:53:53.245Z,2.10
2023-03-26T04:56:40.815Z,1.80
2023-03-26T04:59:38.347Z,1.50
2023-03-26T05:02:10.697Z,1.60
2023-03-26T05:04:51.128Z,1.50
2023-03-26T05:07:22.469Z,2.40
2023-03-26T05:09:57.876Z,2.20
2023-03-26T05:12:41.429Z,2.10
2023-03-26T05:15:13.734Z,2.30
2023-03-26T05:17:52.064Z,2.10
2023-03-26T05:20:43.860Z,1.90
2023-03-26T05:23:14.052Z,1.60
2023-03-26T05:25:47.996Z,2.10
2023-03-26T05:28:20.915Z,1.60
2023-03-26T05:30:55.570Z,1.60
2023-03-26T05:33:25.528Z,1.60
2023-03-26T05:36:28.497Z,1.70
2023-03-26T05:39:22.680Z,1.90
2023-03-26T05:42:17.207Z,2.10
2023-03-26T05:45:00.963Z,1.90
2023-03-26T05:47:29.870Z,1.80
2023-03-26T05:49:58.218Z,1.60
2023-03-26T05:52:28.634Z,2.20
2023-03-26T05:55:16.250Z,1.90
2023-03-26T05:58:11.047Z,1.70
2023-03-26T06:01:00.162Z,1.50
2023-03-26T06:03:35.638Z,1.60
2023-03-26T06:06:17.067Z,1.60
2023-03-26T06:09:02.382Z,1.80
2023-03-26T06:11:32.287Z,1.40
2023-03-26T06:14:09.012Z,1.60
2023-03-26T06:16:40.207Z,1.70
2023-03-26T06:19:22.181Z,1.60
2023-03-26T06:22:07.071Z,1.30
2023-03-26T06:24:54.034Z,1.20
2023-03-26T06:27:33.647Z,1.40
2023-03-26T06:30:37.283Z,1.70
2023-03-26T06:33:23.427Z,1.70
2023-03-26T06:35:52.842Z,2.20
2023-03-26T06:38:21.617Z,1.70
2023-03-26T06:40:51.212Z,1.70
2023-03-26T06:43:33.748Z,1.60
2023-03-26T06:46:38.264Z,1.60
2023-03-26T06:49:25.466Z,1.60
2023-03-26T06:52:19.000Z,1.50
2023-03-26T06:54:52.869Z,2.00
2023-03-26T06:57:58.285Z,1.50
2023-03-26T07:00:54.622Z,1.60
2023-03-26T07:03:41.749Z,1.70
2023-03-26T07:06:36.032Z,1.50
2023-03-26T07:09:23.467Z,1.70
2023-03-26T07:12:17.034Z,1.60
2023-03-26T07:14:51.187Z,1.70
2023-03-26T07:17:38.263Z,1.50
2023-03-26T07:20:23.284Z,1.80
2023-03-26T07:22:52.339Z,1.60
2023-03-26T07:25:43.560Z,1.80
2023-03-26T07:28:39.681Z,1.60
2023-03-26T07:31:27.514Z,1.90
2023-03-26T07:34:27.009Z,1.50
2023-03-26T07:37:17.662Z,1.60
2023-03-26T07:40:27.792Z,1.40
2023-03-26T07:43:23.295Z,1.70
2023-03-26T07:46:17.691Z,1.90
2023-03-26T07:49:14.417Z,1.90
2023-03-26T07:51:58.968Z,1.50
2023-03-26T07:54:56.343Z,2.00
2023-03-26T07:57:47.603Z,1.90
2023-03-26T08:00:35.424Z,1.70
2023-03-26T08:06:24.103Z,1.80
2023-03-26T08:09:09.801Z,3.20
2023-03-26T08:11:58.692Z,3.20
2023-03-26T08:14:49.875Z,3.20
2023-03-26T08:17:24.098Z,3.60
2023-03-26T08:20:13.159Z,3.60
2023-03-26T08:22:41.940Z,4.40
2023-03-26T08:25:35.171Z,4.60
2023-03-26T08:28:11.294Z,5.40
2023-03-26T08:30:40.621Z,5.50
2023-03-26T08:33:11.887Z,6.30
2023-03-26T08:35:43.227Z,6.00
2023-03-26T08:38:13.450Z,5.10
2023-03-26T08:40:51.358Z,5.00
2023-03-26T08:43:40.718Z,6.00
2023-03-26T08:46:20.965Z,6.00
2023-03-26T08:49:18.923Z,6.20
2023-03-26T08:52:17.048Z,6.20
2023-03-26T08:54:48.677Z,6.90
2023-03-26T08:57:23.543Z,7.10
2023-03-26T09:00:13.696Z,6.80
2023-03-26T09:03:10.994Z,6.60
2023-03-26T09:06:13.479Z,7.40
2023-03-26T09:09:05.260Z,7.20
2023-03-26T09:12:18.619Z,7.30
2023-03-26T09:14:59.078Z,8.30
2023-03-26T09:17:46.059Z,7.30
2023-03-26T09:20:36.528Z,8.10
2023-03-26T09:23:15.188Z,8.10
2023-03-26T09:26:05.588Z,7.40
2023-03-26T09:28:58.182Z,7.40
2023-03-26T09:31:51.619Z,6.80
2023-03-26T09:34:23.809Z,7.60
2023-03-26T09:37:29.128Z,7.60
2023-03-26T09:40:15.378Z,7.80
2023-03-26T09:42:53.812Z,7.90
2023-03-26T09:45:31.065Z,8.30
2023-03-26T09:48:05.736Z,8.20
2023-03-26T09:50:41.563Z,9.00
2023-03-26T09:53:18.980Z,8.00
2023-03-26T09:55:53.558Z,8.30
2023-03-26T09:59:00.402Z,8.90
2023-03-26T10:01:54.953Z,8.60
2023-03-26T10:04:27.555Z,9.20
2023-03-26T10:07:18.140Z,9.70
2023-03-26T10:10:20.049Z,8.20
2023-03-26T10:13:26.334Z,8.60
2023-03-26T10:16:02.461Z,8.70
2023-03-26T10:18:49.006Z,8.70
2023-03-26T10:21:32.460Z,8.40
2023-03-26T10:24:19.403Z,8.40
2023-03-26T10:27:10.103Z,8.20
2023-03-26T10:30:08.156Z,8.30
2023-03-26T10:32:47.239Z,7.40
2023-03-26T10:35:37.539Z,8.10
2023-03-26T10:38:24.131Z,7.60
2023-03-26T10:40:59.910Z,7.60
2023-03-26T10:43:49.774Z,7.30
2023-03-26T10:46:44.628Z,6.90
2023-03-26T10:49:33.236Z,6.60
2023-03-26T10:52:16.644Z,6.20
2023-03-26T10:57:41.408Z,6.40
2023-03-26T11:00:26.592Z,5.80
2023-03-26T11:03:04.907Z,5.80
2023-03-26T11:05:56.367Z,5.20
2023-03-26T11:08:35.568Z,5.70
2023-03-26T11:11:24.997Z,5.00
2023-03-26T11:14:35.396Z,5.00
2023-03-26T11:17:39.384Z,4.60
2023-03-26T11:20:35.826Z,4.90
2023-03-26T11:23:18.653Z,4.90
2023-03-26T11:26:05.456Z,4.00
2023-03-26T11:28:39.141Z,3.90
2023-03-26T11:31:20.051Z,3.50
2023-03-26T11:33:52.739Z,3.60
2023-03-26T11:36:24.129Z,3.00
2023-03-26T11:38:54.202Z,3.40
2023-03-26T11:41:28.827Z,3.00
2023-03-26T11:44:11.089Z,3.20
2023-03-26T11:46:43.783Z,3.10
2023-03-26T11:49:13.094Z,3.40
2023-03-26T11:51:42.152Z,2.70
2023-03-26T11:54:12.025Z,2.90
2023-03-26T11:57:07.245Z,3.30
2023-03-26T11:59:49.060Z,2.40
2023-03-26T12:02:32.846Z,2.90
2023-03-26T12:05:29.720Z,2.70
2023-03-26T12:07:59.909Z,2.60
2023-03-26T12:10:37.983Z,2.40
2023-03-26T12:13:21.265Z,1.60
2023-03-26T12:15:51.314Z,1.10
2023-03-26T12:18:26.178Z,1.00
2023-03-26T12:21:08.493Z,1.10
2023-03-26T12:23:58.464Z,1.00
2023-03-26T12:26:45.047Z,1.00
2023-03-26T12:29:15.656Z,1.00
2023-03-26T12:31:49.939Z,0.90
2023-03-26T12:34:23.180Z,1.00
2023-03-26T12:36:55.634Z,1.10
2023-03-26T12:40:09.044Z,1.30
2023-03-26T12:44:48.007Z,1.20
2023-03-26T12:45:16.491Z,1.60
2023-03-26T12:48:00.766Z,1.40
2023-03-26T12:50:43.414Z,1.40
2023-03-26T12:53:33.404Z,2.40
2023-03-26T12:56:27.337Z,2.50
2023-03-26T12:59:15.989Z,1.90
2023-03-26T13:02:02.924Z,1.90
2023-03-26T13:04:54.949Z,1.90
2023-03-26T13:07:52.284Z,2.20
2023-03-26T13:10:33.606Z,2.60
2023-03-26T13:13:10.422Z,2.90
2023-03-26T13:15:50.710Z,2.40
2023-03-26T13:18:28.468Z,2.20
2023-03-26T13:21:09.241Z,1.90
2023-03-26T13:24:07.405Z,1.30
2023-03-26T13:27:11.219Z,1.50
2023-03-26T13:29:56.896Z,1.60
2023-03-26T13:32:40.059Z,1.70
2023-03-26T13:35:23.910Z,1.80
2023-03-26T13:38:11.333Z,1.70
2023-03-26T13:40:57.714Z,1.80
2023-03-26T13:43:26.704Z,2.00
2023-03-26T13:45:59.340Z,2.20
2023-03-26T13:48:30.566Z,2.00
2023-03-26T13:51:03.084Z,2.20
2023-03-26T13:53:37.174Z,2.10
2023-03-26T13:56:06.884Z,1.80
2023-03-26T13:58:59.725Z,2.00
2023-03-26T14:01:41.220Z,2.50
2023-03-26T14:04:23.638Z,4.10
2023-03-26T14:07:06.462Z,3.40
2023-03-26T14:09:37.002Z,2.40
2023-03-26T14:12:21.159Z,2.20
2023-03-26T14:14:55.916Z,4.20
2023-03-26T14:17:31.299Z,2.70
2023-03-26T14:20:21.263Z,2.00
2023-03-26T14:23:10.085Z,2.20
2023-03-26T14:26:09.442Z,1.70
2023-03-26T14:29:02.580Z,1.80
2023-03-26T14:31:52.925Z,2.20
2023-03-26T14:34:36.194Z,2.00
2023-03-26T14:37:27.866Z,2.30
2023-03-26T14:40:18.499Z,2.20
2023-03-26T14:43:18.045Z,2.40
2023-03-26T14:46:04.069Z,3.20
2023-03-26T14:49:11.685Z,3.10
2023-03-26T14:51:43.145Z,3.30
2023-03-26T14:54:20.250Z,3.60
2023-03-26T14:57:00.870Z,3.10
2023-03-26T14:59:51.312Z,2.80
2023-03-26T15:02:22.617Z,2.60
2023-03-26T15:04:54.024Z,2.40
2023-03-26T15:07:59.962Z,2.30
2023-03-26T15:10:47.427Z,1.90
2023-03-26T15:13:32.334Z,2.00
2023-03-26T15:16:08.561Z,1.70
2023-03-26T15:18:49.319Z,1.80
2023-03-26T15:21:33.838Z,2.00
2023-03-26T15:24:12.499Z,2.60
2023-03-26T15:27:21.374Z,2.70
2023-03-26T15:30:16.146Z,3.00
2023-03-26T15:33:05.442Z,2.70
2023-03-26T15:35:43.653Z,2.30
2023-03-26T15:38:21.029Z,2.50
2023-03-26T15:40:54.585Z,2.40
2023-03-26T15:46:10.061Z,2.40
2023-03-26T15:49:12.657Z,2.00
2023-03-26T15:51:46.493Z,2.60
2023-03-26T15:54:54.195Z,2.70
2023-03-26T15:57:27.602Z,2.60
2023-03-26T16:00:15.413Z,2.50
2023-03-26T16:02:58.355Z,2.30
2023-03-26T16:05:34.435Z,2.40
2023-03-26T16:08:38.776Z,3.10
2023-03-26T16:13:48.406Z,2.40
2023-03-26T16:16:16.514Z,2.40
2023-03-26T16:18:58.817Z,2.30
2023-03-26T16:21:32.823Z,2.10
2023-03-26T16:24:08.221Z,2.40
2023-03-26T16:26:40.711Z,1.90
2023-03-26T16:29:15.239Z,1.90
2023-03-26T16:32:18.473Z,2.00
2023-03-26T16:35:02.111Z,1.90
2023-03-26T16:37:37.584Z,2.20
2023-03-26T16:40:18.223Z,2.00
2023-03-26T16:43:11.412Z,2.60
2023-03-26T16:45:56.518Z,2.70
2023-03-26T16:49:01.083Z,2.90
2023-03-26T16:51:57.536Z,3.10
2023-03-26T16:54:56.645Z,3.70
2023-03-26T16:57:30.665Z,4.20
2023-03-26T17:00:16.662Z,3.20
2023-03-26T17:02:52.336Z,3.10
2023-03-26T17:05:45.425Z,2.90
2023-03-26T17:08:35.619Z,4.10
2023-03-26T17:11:29.494Z,3.10
2023-03-26T17:14:24.316Z,3.20
2023-03-26T17:17:29.780Z,3.40
2023-03-26T17:22:54.080Z,3.50
2023-03-26T17:25:54.566Z,8.20
2023-03-26T17:29:00.401Z,17.40
2023-03-26T17:31:40.417Z,8.70
2023-03-26T17:34:46.767Z,5.30
2023-03-26T17:37:23.993Z,6.10
2023-03-26T17:40:02.829Z,8.30
2023-03-26T17:42:36.108Z,8.70
2023-03-26T17:45:25.243Z,8.50
2023-03-26T17:47:58.992Z,8.00
2023-03-26T17:50:32.222Z,8.70
2023-03-26T17:53:05.694Z,7.50
2023-03-26T17:55:36.612Z,6.50
2023-03-26T17:58:08.604Z,5.90
2023-03-26T18:00:43.803Z,5.60
2023-03-26T18:03:31.257Z,5.30
2023-03-26T18:06:08.471Z,6.10
2023-03-26T18:09:01.396Z,7.00
2023-03-26T18:11:59.395Z,5.80
2023-03-26T18:15:12.698Z,5.50
2023-03-26T18:17:43.366Z,6.40
2023-03-26T18:20:23.434Z,6.10
2023-03-26T18:22:52.012Z,9.90
2023-03-26T18:25:23.840Z,9.00
2023-03-26T18:27:51.996Z,8.80
2023-03-26T18:30:23.714Z,7.60
2023-03-26T18:33:01.733Z,7.00
2023-03-26T18:35:54.445Z,5.50
2023-03-26T18:38:36.093Z,5.10
2023-03-26T18:41:08.484Z,5.20
2023-03-26T18:43:44.207Z,5.50
2023-03-26T18:46:14.058Z,5.60
2023-03-26T18:48:44.217Z,5.90
2023-03-26T18:51:12.364Z,6.00
2023-03-26T18:53:45.847Z,6.70
2023-03-26T18:56:35.614Z,6.80
2023-03-26T18:59:28.325Z,7.10
2023-03-26T19:01:59.563Z,7.20
2023-03-26T19:04:30.872Z,8.20
2023-03-26T19:07:01.749Z,7.60
2023-03-26T19:09:32.410Z,7.50
2023-03-26T19:12:06.603Z,8.10
2023-03-26T19:14:37.313Z,8.30
2023-03-26T19:17:05.638Z,8.10
2023-03-26T19:19:39.312Z,7.50
2023-03-26T19:22:09.618Z,7.30
2023-03-26T19:24:37.735Z,6.80
2023-03-26T19:27:08.314Z,6.20
2023-03-26T19:29:36.646Z,6.30
2023-03-26T19:32:35.088Z,6.80
2023-03-26T19:35:04.694Z,6.00
2023-03-26T19:37:33.774Z,5.90
2023-03-26T19:40:14.269Z,6.10
2023-03-26T19:42:43.927Z,5.80
2023-03-26T19:45:20.299Z,5.30
2023-03-26T19:47:57.370Z,5.50
2023-03-26T19:50:33.663Z,5.30
2023-03-26T19:53:22.168Z,5.30
2023-03-26T19:56:18.736Z,4.80
2023-03-26T19:58:46.719Z,4.80
2023-03-26T20:01:18.296Z,5.50
2023-03-26T20:03:49.319Z,5.50
2023-03-26T20:06:19.455Z,5.50
2023-03-26T20:08:52.176Z,5.00
2023-03-26T20:11:28.629Z,5.60
2023-03-26T20:14:01.783Z,5.20
2023-03-26T20:16:31.935Z,5.40
2023-03-26T20:19:04.244Z,5.40
2023-03-26T20:21:38.426Z,4.90
2023-03-26T20:24:15.054Z,5.80
2023-03-26T20:26:43.960Z,6.10
2023-03-26T20:29:13.093Z,5.90
2023-03-26T20:31:44.065Z,5.60
2023-03-26T20:34:16.445Z,5.10
2023-03-26T20:36:45.809Z,5.30
2023-03-26T20:39:14.260Z,5.60
2023-03-26T20:41:47.960Z,6.00
2023-03-26T20:44:20.265Z,4.80
2023-03-26T20:46:49.312Z,5.20
2023-03-26T20:49:18.542Z,5.20
2023-03-26T20:51:47.840Z,5.30
2023-03-26T20:54:21.362Z,5.90
2023-03-26T20:56:51.206Z,5.00
2023-03-26T20:59:22.353Z,5.20
2023-03-26T21:01:51.321Z,5.30
2023-03-26T21:04:20.006Z,4.80
2023-03-26T21:06:48.348Z,4.50
2023-03-26T21:09:18.854Z,4.60
2023-03-26T21:12:05.170Z,4.40
2023-03-26T21:14:43.601Z,4.50
2023-03-26T21:17:16.176Z,4.80
2023-03-26T21:19:45.883Z,5.40
2023-03-26T21:22:17.524Z,4.80
2023-03-26T21:25:10.513Z,4.30
2023-03-26T21:27:48.073Z,4.80
2023-03-26T21:30:16.872Z,4.80
2023-03-26T21:32:46.372Z,5.30
2023-03-26T21:35:19.965Z,4.60
2023-03-26T21:37:48.949Z,5.00
2023-03-26T21:40:18.346Z,5.10
2023-03-26T21:42:52.134Z,5.20
2023-03-26T21:45:21.249Z,4.80
2023-03-26T21:47:52.802Z,5.10
2023-03-26T21:50:23.585Z,4.90
2023-03-26T21:52:52.241Z,5.00
2023-03-26T21:55:22.169Z,5.30
2023-03-26T21:57:54.227Z,5.50
2023-03-26T22:00:33.589Z,5.00
2023-03-26T22:03:18.840Z,5.20
2023-03-26T22:05:57.672Z,4.60
2023-03-26T22:08:36.833Z,4.50
2023-03-26T22:11:06.720Z,4.30
2023-03-26T22:13:38.832Z,3.80
2023-03-26T22:16:08.637Z,4.90
2023-03-26T22:18:38.689Z,4.50
2023-03-26T22:21:07.231Z,4.30
2023-03-26T22:23:38.479Z,4.20
2023-03-26T22:26:07.298Z,4.40
2023-03-26T22:28:38.395Z,4.20
2023-03-26T22:31:09.220Z,4.60
2023-03-26T22:33:40.101Z,4.60
2023-03-26T22:36:22.895Z,4.20
2023-03-26T22:38:54.123Z,4.00
2023-03-26T22:41:25.236Z,3.70
2023-03-26T22:43:54.791Z,4.50
2023-03-26T22:46:25.229Z,4.00
2023-03-26T22:48:54.816Z,3.90
2023-03-26T22:51:30.582Z,4.30
2023-03-26T22:53:59.572Z,4.10
2023-03-26T22:56:27.837Z,4.60
2023-03-26T22:58:55.887Z,3.80
2023-03-26T23:01:24.190Z,4.00
2023-03-26T23:03:52.400Z,4.30
2023-03-26T23:06:21.717Z,4.00
2023-03-26T23:08:50.143Z,4.20
2023-03-26T23:11:19.670Z,4.40
2023-03-26T23:13:48.022Z,4.60
2023-03-26T23:16:16.632Z,4.20
2023-03-26T23:18:46.665Z,3.80
2023-03-26T23:21:16.344Z,3.90
2023-03-26T23:23:44.502Z,4.40
2023-03-26T23:26:14.579Z,4.40
2023-03-26T23:28:43.439Z,4.20
2023-03-26T23:31:12.580Z,4.60
2023-03-26T23:33:47.721Z,4.60
2023-03-26T23:36:18.323Z,4.00
2023-03-26T23:38:47.773Z,4.10
2023-03-26T23:41:18.829Z,4.40
2023-03-26T23:43:53.314Z,4.10
2023-03-26T23:46:30.488Z,4.10
2023-03-26T23:49:05.484Z,3.90
2023-03-26T23:51:36.154Z,4.30
2023-03-26T23:54:05.231Z,3.60
2023-03-26T23:56:40.484Z,4.10
2023-03-26T23:59:10.494Z,3.90
